sensor_id;sensor_type;location;lat;lon;timestamp;temperature;humidity
39453;DHT22;25154;-33.684;151.102;2023-08-08T00:02:22;14.70;99.90
39453;DHT22;25154;-33.684;151.102;2023-08-08T00:07:26;14.60;99.90
39453;DHT22;25154;-33.684;151.102;2023-08-08T00:12:32;15.10;99.90
39453;DHT22;25154;-33.684;151.102;2023-08-08T00:17:34;15.20;99.90
39453;DHT22;25154;-33.684;151.102;2023-08-08T00:22:37;15.40;99.90
39453;DHT22;25154;-33.684;151.102;2023-08-08T00:27:40;15.60;99.90
39453;DHT22;25154;-33.684;151.102;2023-08-08T00:32:45;15.90;99.90
39453;DHT22;25154;-33.684;151.102;2023-08-08T00:37:49;15.50;99.90
39453;DHT22;25154;-33.684;151.102;2023-08-08T00:42:51;15.30;99.90
39453;DHT22;25154;-33.684;151.102;2023-08-08T00:47:54;15.50;99.90
39453;DHT22;25154;-33.684;151.102;2023-08-08T00:52:57;15.60;99.90
39453;DHT22;25154;-33.684;151.102;2023-08-08T00:58:00;15.80;99.90
39453;DHT22;25154;-33.684;151.102;2023-08-08T01:03:03;15.70;99.90
39453;DHT22;25154;-33.684;151.102;2023-08-08T01:08:07;16.10;99.90
39453;DHT22;25154;-33.684;151.102;2023-08-08T01:13:15;16.00;99.90
39453;DHT22;25154;-33.684;151.102;2023-08-08T01:18:19;15.60;99.90
39453;DHT22;25154;-33.684;151.102;2023-08-08T01:24:31;15.80;99.90
39453;DHT22;25154;-33.684;151.102;2023-08-08T01:29:08;15.90;99.90
39453;DHT22;25154;-33.684;151.102;2023-08-08T01:34:11;16.10;99.90
39453;DHT22;25154;-33.684;151.102;2023-08-08T01:39:17;16.50;99.90
39453;DHT22;25154;-33.684;151.102;2023-08-08T01:44:20;16.30;99.90
39453;DHT22;25154;-33.684;151.102;2023-08-08T01:49:25;17.20;99.90
39453;DHT22;25154;-33.684;151.102;2023-08-08T01:54:27;18.00;99.90
39453;DHT22;25154;-33.684;151.102;2023-08-08T01:59:30;16.80;99.90
39453;DHT22;25154;-33.684;151.102;2023-08-08T02:04:33;16.60;99.90
39453;DHT22;25154;-33.684;151.102;2023-08-08T02:09:36;17.40;99.90
39453;DHT22;25154;-33.684;151.102;2023-08-08T02:14:38;17.90;99.90
39453;DHT22;25154;-33.684;151.102;2023-08-08T02:19:41;18.30;99.90
39453;DHT22;25154;-33.684;151.102;2023-08-08T02:24:44;18.30;99.90
39453;DHT22;25154;-33.684;151.102;2023-08-08T02:29:47;18.40;99.90
39453;DHT22;25154;-33.684;151.102;2023-08-08T02:34:49;18.00;99.90
39453;DHT22;25154;-33.684;151.102;2023-08-08T02:39:52;17.90;99.90
39453;DHT22;25154;-33.684;151.102;2023-08-08T02:44:55;18.50;99.90
39453;DHT22;25154;-33.684;151.102;2023-08-08T02:49:58;19.00;99.90
39453;DHT22;25154;-33.684;151.102;2023-08-08T02:55:00;18.60;99.90
39453;DHT22;25154;-33.684;151.102;2023-08-08T03:00:04;19.10;99.90
39453;DHT22;25154;-33.684;151.102;2023-08-08T03:05:07;18.90;99.90
39453;DHT22;25154;-33.684;151.102;2023-08-08T03:10:12;18.90;99.90
39453;DHT22;25154;-33.684;151.102;2023-08-08T03:15:15;19.60;99.90
39453;DHT22;25154;-33.684;151.102;2023-08-08T03:20:18;18.90;99.90
39453;DHT22;25154;-33.684;151.102;2023-08-08T03:25:21;19.50;99.90
39453;DHT22;25154;-33.684;151.102;2023-08-08T03:30:23;20.10;98.10
39453;DHT22;25154;-33.684;151.102;2023-08-08T03:35:26;19.90;96.50
39453;DHT22;25154;-33.684;151.102;2023-08-08T03:40:29;20.20;96.50
39453;DHT22;25154;-33.684;151.102;2023-08-08T03:45:32;20.20;96.60
39453;DHT22;25154;-33.684;151.102;2023-08-08T03:50:35;20.50;96.40
39453;DHT22;25154;-33.684;151.102;2023-08-08T03:55:38;20.10;96.80
39453;DHT22;25154;-33.684;151.102;2023-08-08T04:00:40;20.50;96.20
39453;DHT22;25154;-33.684;151.102;2023-08-08T04:05:48;20.10;95.80
39453;DHT22;25154;-33.684;151.102;2023-08-08T04:10:50;21.80;93.30
39453;DHT22;25154;-33.684;151.102;2023-08-08T04:15:53;23.60;91.60
39453;DHT22;25154;-33.684;151.102;2023-08-08T04:20:56;24.30;89.50
39453;DHT22;25154;-33.684;151.102;2023-08-08T04:25:59;23.00;93.20
39453;DHT22;25154;-33.684;151.102;2023-08-08T04:31:02;23.00;94.50
39453;DHT22;25154;-33.684;151.102;2023-08-08T04:36:05;21.00;99.10
39453;DHT22;25154;-33.684;151.102;2023-08-08T04:41:07;19.60;99.90
39453;DHT22;25154;-33.684;151.102;2023-08-08T04:46:10;19.40;99.90
39453;DHT22;25154;-33.684;151.102;2023-08-08T04:51:14;18.30;99.90
39453;DHT22;25154;-33.684;151.102;2023-08-08T04:56:16;17.80;99.90
39453;DHT22;25154;-33.684;151.102;2023-08-08T05:01:19;17.80;99.90
39453;DHT22;25154;-33.684;151.102;2023-08-08T05:06:22;25.70;92.10
39453;DHT22;25154;-33.684;151.102;2023-08-08T05:11:25;28.40;84.40
39453;DHT22;25154;-33.684;151.102;2023-08-08T05:16:28;29.30;79.20
39453;DHT22;25154;-33.684;151.102;2023-08-08T05:21:30;28.80;76.60
39453;DHT22;25154;-33.684;151.102;2023-08-08T05:26:33;22.20;90.80
39453;DHT22;25154;-33.684;151.102;2023-08-08T05:31:36;19.30;99.90
39453;DHT22;25154;-33.684;151.102;2023-08-08T05:36:39;18.40;99.90
39453;DHT22;25154;-33.684;151.102;2023-08-08T05:41:41;18.40;99.90
39453;DHT22;25154;-33.684;151.102;2023-08-08T05:46:44;26.00;90.60
39453;DHT22;25154;-33.684;151.102;2023-08-08T05:51:47;28.90;82.60
39453;DHT22;25154;-33.684;151.102;2023-08-08T05:56:49;28.80;79.80
39453;DHT22;25154;-33.684;151.102;2023-08-08T06:01:52;27.60;81.10
39453;DHT22;25154;-33.684;151.102;2023-08-08T06:06:55;27.10;80.30
39453;DHT22;25154;-33.684;151.102;2023-08-08T06:11:58;26.60;82.80
39453;DHT22;25154;-33.684;151.102;2023-08-08T06:17:01;22.30;92.80
39453;DHT22;25154;-33.684;151.102;2023-08-08T06:22:03;20.20;99.90
39453;DHT22;25154;-33.684;151.102;2023-08-08T06:27:06;18.90;99.90
39453;DHT22;25154;-33.684;151.102;2023-08-08T06:32:13;18.40;99.90
39453;DHT22;25154;-33.684;151.102;2023-08-08T06:37:16;17.90;99.90
39453;DHT22;25154;-33.684;151.102;2023-08-08T06:42:18;17.60;99.90
39453;DHT22;25154;-33.684;151.102;2023-08-08T06:47:21;17.10;99.90
39453;DHT22;25154;-33.684;151.102;2023-08-08T06:52:24;16.70;99.90
39453;DHT22;25154;-33.684;151.102;2023-08-08T06:57:27;16.40;99.90
39453;DHT22;25154;-33.684;151.102;2023-08-08T07:02:30;15.90;99.90
39453;DHT22;25154;-33.684;151.102;2023-08-08T07:07:33;15.50;99.90
39453;DHT22;25154;-33.684;151.102;2023-08-08T07:12:37;15.00;99.90
39453;DHT22;25154;-33.684;151.102;2023-08-08T07:17:39;14.70;99.90
39453;DHT22;25154;-33.684;151.102;2023-08-08T07:22:42;14.40;99.90
39453;DHT22;25154;-33.684;151.102;2023-08-08T07:27:45;14.10;99.90
39453;DHT22;25154;-33.684;151.102;2023-08-08T07:32:48;13.80;99.90
39453;DHT22;25154;-33.684;151.102;2023-08-08T07:37:51;13.40;99.90
39453;DHT22;25154;-33.684;151.102;2023-08-08T07:42:53;13.30;99.90
39453;DHT22;25154;-33.684;151.102;2023-08-08T07:47:56;13.10;99.90
39453;DHT22;25154;-33.684;151.102;2023-08-08T07:52:59;13.00;99.90
39453;DHT22;25154;-33.684;151.102;2023-08-08T07:58:02;12.90;99.90
39453;DHT22;25154;-33.684;151.102;2023-08-08T08:03:05;12.60;99.90
39453;DHT22;25154;-33.684;151.102;2023-08-08T08:08:08;12.60;99.90
39453;DHT22;25154;-33.684;151.102;2023-08-08T08:13:11;12.50;99.90
39453;DHT22;25154;-33.684;151.102;2023-08-08T08:18:14;12.40;99.90
39453;DHT22;25154;-33.684;151.102;2023-08-08T08:23:18;12.30;99.90
39453;DHT22;25154;-33.684;151.102;2023-08-08T08:28:21;12.30;99.90
39453;DHT22;25154;-33.684;151.102;2023-08-08T08:33:24;12.20;99.90
39453;DHT22;25154;-33.684;151.102;2023-08-08T08:38:27;12.20;99.90
39453;DHT22;25154;-33.684;151.102;2023-08-08T08:43:31;12.20;99.90
39453;DHT22;25154;-33.684;151.102;2023-08-08T08:48:34;12.00;99.90
39453;DHT22;25154;-33.684;151.102;2023-08-08T08:53:36;11.90;99.90
39453;DHT22;25154;-33.684;151.102;2023-08-08T08:58:41;11.80;99.90
39453;DHT22;25154;-33.684;151.102;2023-08-08T09:03:45;11.60;99.90
39453;DHT22;25154;-33.684;151.102;2023-08-08T09:08:48;11.70;99.90
39453;DHT22;25154;-33.684;151.102;2023-08-08T09:13:51;11.70;99.90
39453;DHT22;25154;-33.684;151.102;2023-08-08T09:18:54;11.50;99.90
39453;DHT22;25154;-33.684;151.102;2023-08-08T09:23:57;11.40;99.90
39453;DHT22;25154;-33.684;151.102;2023-08-08T09:29:01;11.30;99.90
39453;DHT22;25154;-33.684;151.102;2023-08-08T09:34:04;11.10;99.90
39453;DHT22;25154;-33.684;151.102;2023-08-08T09:39:07;11.50;99.90
39453;DHT22;25154;-33.684;151.102;2023-08-08T09:44:10;11.40;99.90
39453;DHT22;25154;-33.684;151.102;2023-08-08T09:49:14;11.40;99.90
39453;DHT22;25154;-33.684;151.102;2023-08-08T09:54:17;11.50;99.90
39453;DHT22;25154;-33.684;151.102;2023-08-08T09:59:20;11.30;99.90
39453;DHT22;25154;-33.684;151.102;2023-08-08T10:04:23;11.10;99.90
39453;DHT22;25154;-33.684;151.102;2023-08-08T10:09:27;11.00;99.90
39453;DHT22;25154;-33.684;151.102;2023-08-08T10:14:32;11.20;99.90
39453;DHT22;25154;-33.684;151.102;2023-08-08T10:19:35;11.00;99.90
39453;DHT22;25154;-33.684;151.102;2023-08-08T10:24:39;11.00;99.90
39453;DHT22;25154;-33.684;151.102;2023-08-08T10:29:41;10.90;99.90
39453;DHT22;25154;-33.684;151.102;2023-08-08T10:34:49;10.90;99.90
39453;DHT22;25154;-33.684;151.102;2023-08-08T10:39:59;10.70;99.90
39453;DHT22;25154;-33.684;151.102;2023-08-08T10:45:02;10.60;99.90
39453;DHT22;25154;-33.684;151.102;2023-08-08T10:50:13;10.60;99.90
39453;DHT22;25154;-33.684;151.102;2023-08-08T10:55:35;10.60;99.90
39453;DHT22;25154;-33.684;151.102;2023-08-08T11:00:39;10.60;99.90
39453;DHT22;25154;-33.684;151.102;2023-08-08T11:05:42;10.60;99.90
39453;DHT22;25154;-33.684;151.102;2023-08-08T11:10:52;10.40;99.90
39453;DHT22;25154;-33.684;151.102;2023-08-08T11:15:55;10.20;99.90
39453;DHT22;25154;-33.684;151.102;2023-08-08T11:20:58;10.30;99.90
39453;DHT22;25154;-33.684;151.102;2023-08-08T11:26:02;10.40;99.90
39453;DHT22;25154;-33.684;151.102;2023-08-08T11:31:04;10.50;99.90
39453;DHT22;25154;-33.684;151.102;2023-08-08T11:36:07;10.50;99.90
39453;DHT22;25154;-33.684;151.102;2023-08-08T11:41:12;10.50;99.90
39453;DHT22;25154;-33.684;151.102;2023-08-08T11:46:16;10.80;99.90
39453;DHT22;25154;-33.684;151.102;2023-08-08T11:51:19;10.80;99.90
39453;DHT22;25154;-33.684;151.102;2023-08-08T11:56:22;10.80;99.90
39453;DHT22;25154;-33.684;151.102;2023-08-08T12:01:26;11.00;99.90
39453;DHT22;25154;-33.684;151.102;2023-08-08T12:06:29;11.00;99.90
39453;DHT22;25154;-33.684;151.102;2023-08-08T12:11:35;10.90;99.90
39453;DHT22;25154;-33.684;151.102;2023-08-08T12:16:43;10.70;99.90
39453;DHT22;25154;-33.684;151.102;2023-08-08T12:21:45;10.90;99.90
39453;DHT22;25154;-33.684;151.102;2023-08-08T12:26:48;10.60;99.90
39453;DHT22;25154;-33.684;151.102;2023-08-08T12:31:51;10.70;99.90
39453;DHT22;25154;-33.684;151.102;2023-08-08T12:36:54;10.60;99.90
39453;DHT22;25154;-33.684;151.102;2023-08-08T12:41:56;10.60;99.90
39453;DHT22;25154;-33.684;151.102;2023-08-08T12:46:59;10.40;99.90
39453;DHT22;25154;-33.684;151.102;2023-08-08T12:52:02;10.50;99.90
39453;DHT22;25154;-33.684;151.102;2023-08-08T12:57:05;10.30;99.90
39453;DHT22;25154;-33.684;151.102;2023-08-08T13:02:07;10.40;99.90
39453;DHT22;25154;-33.684;151.102;2023-08-08T13:07:10;10.20;99.90
39453;DHT22;25154;-33.684;151.102;2023-08-08T13:12:13;10.10;99.90
39453;DHT22;25154;-33.684;151.102;2023-08-08T13:17:15;10.30;99.90
39453;DHT22;25154;-33.684;151.102;2023-08-08T13:22:18;10.10;99.90
39453;DHT22;25154;-33.684;151.102;2023-08-08T13:27:21;10.30;99.90
39453;DHT22;25154;-33.684;151.102;2023-08-08T13:32:23;10.10;99.90
39453;DHT22;25154;-33.684;151.102;2023-08-08T13:37:26;11.00;99.90
39453;DHT22;25154;-33.684;151.102;2023-08-08T13:42:29;9.70;99.90
39453;DHT22;25154;-33.684;151.102;2023-08-08T13:47:32;9.70;99.90
39453;DHT22;25154;-33.684;151.102;2023-08-08T13:52:36;9.40;99.90
39453;DHT22;25154;-33.684;151.102;2023-08-08T13:57:38;9.60;99.90
39453;DHT22;25154;-33.684;151.102;2023-08-08T14:02:41;9.70;99.90
39453;DHT22;25154;-33.684;151.102;2023-08-08T14:07:45;9.80;99.90
39453;DHT22;25154;-33.684;151.102;2023-08-08T14:12:47;9.70;99.90
39453;DHT22;25154;-33.684;151.102;2023-08-08T14:17:50;9.40;99.90
39453;DHT22;25154;-33.684;151.102;2023-08-08T14:22:53;9.10;99.90
39453;DHT22;25154;-33.684;151.102;2023-08-08T14:27:56;8.00;99.90
39453;DHT22;25154;-33.684;151.102;2023-08-08T14:32:59;9.40;99.90
39453;DHT22;25154;-33.684;151.102;2023-08-08T14:38:02;9.10;99.90
39453;DHT22;25154;-33.684;151.102;2023-08-08T14:43:04;9.20;99.90
39453;DHT22;25154;-33.684;151.102;2023-08-08T14:48:12;9.00;99.90
39453;DHT22;25154;-33.684;151.102;2023-08-08T14:53:15;8.90;99.90
39453;DHT22;25154;-33.684;151.102;2023-08-08T14:58:17;9.00;99.90
39453;DHT22;25154;-33.684;151.102;2023-08-08T15:03:20;9.10;99.90
39453;DHT22;25154;-33.684;151.102;2023-08-08T15:08:23;8.70;99.90
39453;DHT22;25154;-33.684;151.102;2023-08-08T15:13:26;8.70;99.90
39453;DHT22;25154;-33.684;151.102;2023-08-08T15:18:29;8.40;99.90
39453;DHT22;25154;-33.684;151.102;2023-08-08T15:23:31;8.60;99.90
39453;DHT22;25154;-33.684;151.102;2023-08-08T15:28:33;8.60;99.90
39453;DHT22;25154;-33.684;151.102;2023-08-08T15:33:36;8.40;99.90
39453;DHT22;25154;-33.684;151.102;2023-08-08T15:38:41;8.30;99.90
39453;DHT22;25154;-33.684;151.102;2023-08-08T15:43:46;8.50;99.90
39453;DHT22;25154;-33.684;151.102;2023-08-08T15:48:48;8.60;99.90
39453;DHT22;25154;-33.684;151.102;2023-08-08T15:53:51;8.40;99.90
39453;DHT22;25154;-33.684;151.102;2023-08-08T15:58:54;8.50;99.90
39453;DHT22;25154;-33.684;151.102;2023-08-08T16:03:57;8.60;99.90
39453;DHT22;25154;-33.684;151.102;2023-08-08T16:09:00;7.90;99.90
39453;DHT22;25154;-33.684;151.102;2023-08-08T16:14:04;7.90;99.90
39453;DHT22;25154;-33.684;151.102;2023-08-08T16:19:07;8.20;99.90
39453;DHT22;25154;-33.684;151.102;2023-08-08T16:24:09;8.40;99.90
39453;DHT22;25154;-33.684;151.102;2023-08-08T16:29:12;8.40;99.90
39453;DHT22;25154;-33.684;151.102;2023-08-08T16:34:15;8.40;99.90
39453;DHT22;25154;-33.684;151.102;2023-08-08T16:39:18;8.10;99.90
39453;DHT22;25154;-33.684;151.102;2023-08-08T16:44:21;8.00;99.90
39453;DHT22;25154;-33.684;151.102;2023-08-08T16:49:24;8.40;99.90
39453;DHT22;25154;-33.684;151.102;2023-08-08T16:54:26;8.20;99.90
39453;DHT22;25154;-33.684;151.102;2023-08-08T16:59:30;8.00;99.90
39453;DHT22;25154;-33.684;151.102;2023-08-08T17:04:33;8.10;99.90
39453;DHT22;25154;-33.684;151.102;2023-08-08T17:09:36;7.90;99.90
39453;DHT22;25154;-33.684;151.102;2023-08-08T17:14:38;8.10;99.90
39453;DHT22;25154;-33.684;151.102;2023-08-08T17:19:40;8.00;99.90
39453;DHT22;25154;-33.684;151.102;2023-08-08T17:24:43;8.20;99.90
39453;DHT22;25154;-33.684;151.102;2023-08-08T17:29:45;8.00;99.90
39453;DHT22;25154;-33.684;151.102;2023-08-08T17:34:48;7.70;99.90
39453;DHT22;25154;-33.684;151.102;2023-08-08T17:39:50;7.70;99.90
39453;DHT22;25154;-33.684;151.102;2023-08-08T17:44:53;7.60;99.90
39453;DHT22;25154;-33.684;151.102;2023-08-08T17:49:56;7.80;99.90
39453;DHT22;25154;-33.684;151.102;2023-08-08T17:54:58;7.90;99.90
39453;DHT22;25154;-33.684;151.102;2023-08-08T18:00:01;7.60;99.90
39453;DHT22;25154;-33.684;151.102;2023-08-08T18:05:05;7.70;99.90
39453;DHT22;25154;-33.684;151.102;2023-08-08T18:10:08;7.90;99.90
39453;DHT22;25154;-33.684;151.102;2023-08-08T18:15:11;7.70;99.90
39453;DHT22;25154;-33.684;151.102;2023-08-08T18:20:14;7.60;99.90
39453;DHT22;25154;-33.684;151.102;2023-08-08T18:25:17;7.50;99.90
39453;DHT22;25154;-33.684;151.102;2023-08-08T18:30:19;7.30;99.90
39453;DHT22;25154;-33.684;151.102;2023-08-08T18:35:23;8.00;99.90
39453;DHT22;25154;-33.684;151.102;2023-08-08T18:40:26;7.80;99.90
39453;DHT22;25154;-33.684;151.102;2023-08-08T18:45:29;7.70;99.90
39453;DHT22;25154;-33.684;151.102;2023-08-08T18:50:32;7.50;99.90
39453;DHT22;25154;-33.684;151.102;2023-08-08T18:55:35;7.70;99.90
39453;DHT22;25154;-33.684;151.102;2023-08-08T19:00:38;7.60;99.90
39453;DHT22;25154;-33.684;151.102;2023-08-08T19:05:40;7.20;99.90
39453;DHT22;25154;-33.684;151.102;2023-08-08T19:10:43;7.50;99.90
39453;DHT22;25154;-33.684;151.102;2023-08-08T19:15:46;7.60;99.90
39453;DHT22;25154;-33.684;151.102;2023-08-08T19:20:48;7.50;99.90
39453;DHT22;25154;-33.684;151.102;2023-08-08T19:25:51;7.50;99.90
39453;DHT22;25154;-33.684;151.102;2023-08-08T19:31:00;7.40;99.90
39453;DHT22;25154;-33.684;151.102;2023-08-08T19:36:02;7.10;99.90
39453;DHT22;25154;-33.684;151.102;2023-08-08T19:41:08;7.00;99.90
39453;DHT22;25154;-33.684;151.102;2023-08-08T19:46:10;7.20;99.90
39453;DHT22;25154;-33.684;151.102;2023-08-08T19:51:12;7.30;99.90
39453;DHT22;25154;-33.684;151.102;2023-08-08T19:56:15;7.30;99.90
39453;DHT22;25154;-33.684;151.102;2023-08-08T20:01:17;7.20;99.90
39453;DHT22;25154;-33.684;151.102;2023-08-08T20:06:20;7.20;99.90
39453;DHT22;25154;-33.684;151.102;2023-08-08T20:11:23;7.00;99.90
39453;DHT22;25154;-33.684;151.102;2023-08-08T20:16:25;7.10;99.90
39453;DHT22;25154;-33.684;151.102;2023-08-08T20:21:28;7.20;99.90
39453;DHT22;25154;-33.684;151.102;2023-08-08T20:26:30;7.00;99.90
39453;DHT22;25154;-33.684;151.102;2023-08-08T20:31:34;7.10;99.90
39453;DHT22;25154;-33.684;151.102;2023-08-08T20:36:36;7.20;99.90
39453;DHT22;25154;-33.684;151.102;2023-08-08T20:41:39;6.90;99.90
39453;DHT22;25154;-33.684;151.102;2023-08-08T20:46:41;7.00;99.90
39453;DHT22;25154;-33.684;151.102;2023-08-08T20:51:43;7.20;99.90
39453;DHT22;25154;-33.684;151.102;2023-08-08T20:56:58;7.00;99.90
39453;DHT22;25154;-33.684;151.102;2023-08-08T21:02:00;7.10;99.90
39453;DHT22;25154;-33.684;151.102;2023-08-08T21:07:02;6.80;99.90
39453;DHT22;25154;-33.684;151.102;2023-08-08T21:12:06;7.00;99.90
39453;DHT22;25154;-33.684;151.102;2023-08-08T21:17:09;6.80;99.90
39453;DHT22;25154;-33.684;151.102;2023-08-08T21:22:12;7.00;99.90
39453;DHT22;25154;-33.684;151.102;2023-08-08T21:27:15;7.00;99.90
39453;DHT22;25154;-33.684;151.102;2023-08-08T21:32:19;7.00;99.90
39453;DHT22;25154;-33.684;151.102;2023-08-08T21:37:22;7.00;99.90
39453;DHT22;25154;-33.684;151.102;2023-08-08T21:42:24;7.20;99.90
39453;DHT22;25154;-33.684;151.102;2023-08-08T21:47:27;7.30;99.90
39453;DHT22;25154;-33.684;151.102;2023-08-08T21:52:30;7.50;99.90
39453;DHT22;25154;-33.684;151.102;2023-08-08T21:57:37;7.60;99.90
39453;DHT22;25154;-33.684;151.102;2023-08-08T22:02:39;8.00;99.90
39453;DHT22;25154;-33.684;151.102;2023-08-08T22:07:42;8.30;99.90
39453;DHT22;25154;-33.684;151.102;2023-08-08T22:12:45;8.40;99.90
39453;DHT22;25154;-33.684;151.102;2023-08-08T22:17:48;8.60;99.90
39453;DHT22;25154;-33.684;151.102;2023-08-08T22:22:51;8.80;99.90
39453;DHT22;25154;-33.684;151.102;2023-08-08T22:27:53;9.20;99.90
39453;DHT22;25154;-33.684;151.102;2023-08-08T22:32:56;9.50;99.90
39453;DHT22;25154;-33.684;151.102;2023-08-08T22:37:59;9.80;99.90
39453;DHT22;25154;-33.684;151.102;2023-08-08T22:43:02;10.10;99.90
39453;DHT22;25154;-33.684;151.102;2023-08-08T22:48:05;10.40;99.90
39453;DHT22;25154;-33.684;151.102;2023-08-08T22:53:10;10.80;99.90
39453;DHT22;25154;-33.684;151.102;2023-08-08T22:58:13;11.30;99.90
39453;DHT22;25154;-33.684;151.102;2023-08-08T23:03:16;11.90;99.90
39453;DHT22;25154;-33.684;151.102;2023-08-08T23:08:28;12.50;99.90
39453;DHT22;25154;-33.684;151.102;2023-08-08T23:13:31;12.70;99.90
39453;DHT22;25154;-33.684;151.102;2023-08-08T23:18:34;13.10;99.90
39453;DHT22;25154;-33.684;151.102;2023-08-08T23:23:37;13.30;99.90
39453;DHT22;25154;-33.684;151.102;2023-08-08T23:28:40;13.60;99.90
39453;DHT22;25154;-33.684;151.102;2023-08-08T23:33:43;13.90;99.90
39453;DHT22;25154;-33.684;151.102;2023-08-08T23:38:45;14.20;99.90
39453;DHT22;25154;-33.684;151.102;2023-08-08T23:43:49;14.30;99.90
39453;DHT22;25154;-33.684;151.102;2023-08-08T23:48:52;14.50;99.90
39453;DHT22;25154;-33.684;151.102;2023-08-08T23:53:54;14.60;99.90
39453;DHT22;25154;-33.684;151.102;2023-08-08T23:58:57;14.80;99.90
